Time;durP1;ratioP1;P1;durP2;ratioP2;P2;SDS_P1;SDS_P2;PMS_P1;PMS_P2;Temp;Humidity;BMP_temperature;BMP_pressure;BME280_temperature;BME280_humidity;BME280_pressure;Samples;Min_cycle;Max_cycle;Signal;HPM_P1;HPM_P2
2023/08/23 00:01:25;;;;;;;;;;;;;;;24.53;53.24;101675.09;4147292;28;19936;-55
2023/08/23 00:03:27;;;;;;;;;;;;;;;24.51;53.41;101677.03;4145194;28;19933;-58
2023/08/23 00:05:29;;;;;;;;;;;;;;;24.51;53.46;101684.22;4147496;28;20410;-57
2023/08/23 00:07:30;;;;;;;;;;;;;;;24.50;53.35;101679.84;4147531;28;19937;-57
2023/08/23 00:09:32;;;;;;;;;;;;;;;24.49;53.36;101675.44;4147171;28;19973;-57
2023/08/23 00:11:33;;;;;;;;;;;;;;;24.49;53.62;101670.91;4147175;28;19929;-57
2023/08/23 00:13:35;;;;;;;;;;;;;;;24.48;53.43;101669.19;4146321;28;19951;-57
2023/08/23 00:15:40;;;;;;;;;;;;;;;24.48;53.75;101668.34;4147360;28;20028;-61
2023/08/23 00:17:42;;;;;;;;;;;;;;;24.45;53.62;101658.69;4147159;28;20027;-58
2023/08/23 00:19:45;;;;;;;;;;;;;;;24.45;53.56;101664.06;4147439;28;20303;-58
2023/08/23 00:21:47;;;;;;;;;;;;;;;24.45;53.64;101660.50;4146146;28;20012;-57
2023/08/23 00:23:49;;;;;;;;;;;;;;;24.44;53.55;101659.69;4146056;28;20288;-57
2023/08/23 00:25:50;;;;;;;;;;;;;;;24.44;53.42;101662.38;4147382;28;19925;-57
2023/08/23 00:27:52;;;;;;;;;;;;;;;24.43;53.52;101659.81;4147319;28;19972;-57
2023/08/23 00:30:12;;;;;;;;;;;;;;;24.42;53.51;101658.09;4147337;28;20525;-57
2023/08/23 00:32:13;;;;;;;;;;;;;;;24.39;53.71;101654.66;4147088;28;20303;-58
2023/08/23 00:34:15;;;;;;;;;;;;;;;24.39;53.33;101654.66;4146559;28;19926;-57
2023/08/23 00:36:16;;;;;;;;;;;;;;;24.40;53.67;101656.38;4147233;28;19980;-58
2023/08/23 00:38:18;;;;;;;;;;;;;;;24.39;53.68;101649.28;4146703;28;19925;-56
2023/08/23 00:40:20;;;;;;;;;;;;;;;24.39;53.86;101643.06;4147309;28;19937;-57
2023/08/23 00:42:21;;;;;;;;;;;;;;;24.37;53.92;101634.25;4146628;28;19933;-58
2023/08/23 00:44:23;;;;;;;;;;;;;;;24.36;53.67;101636.09;4147001;28;20080;-57
2023/08/23 00:46:25;;;;;;;;;;;;;;;24.36;53.46;101636.09;4147269;28;19929;-57
2023/08/23 00:48:29;;;;;;;;;;;;;;;24.36;53.79;101625.34;4147090;28;19995;-55
2023/08/23 00:50:31;;;;;;;;;;;;;;;24.36;53.92;101629.84;4147872;28;20264;-57
2023/08/23 00:52:32;;;;;;;;;;;;;;;24.35;53.92;101623.63;4149084;28;20009;-56
2023/08/23 00:54:53;;;;;;;;;;;;;;;24.34;53.74;101623.72;4150099;28;19929;-57
2023/08/23 00:56:56;;;;;;;;;;;;;;;24.34;53.59;101621.91;4150200;28;19960;-55
2023/08/23 00:58:58;;;;;;;;;;;;;;;24.33;53.91;101625.56;4148864;28;20415;-56
2023/08/23 01:01:00;;;;;;;;;;;;;;;24.33;53.82;101622.88;4150260;28;19961;-56
2023/08/23 01:03:02;;;;;;;;;;;;;;;24.32;54.03;101626.53;4148159;28;20032;-55
2023/08/23 01:05:03;;;;;;;;;;;;;;;24.32;53.90;101621.16;4149698;28;19925;-57
2023/08/23 01:07:16;;;;;;;;;;;;;;;24.32;54.02;101623.03;4148482;28;19930;-57
2023/08/23 01:09:17;;;;;;;;;;;;;;;24.30;53.99;101615.06;4150080;28;19976;-57
2023/08/23 01:11:38;;;;;;;;;;;;;;;24.30;53.91;101607.00;4150094;28;20398;-57
2023/08/23 01:13:48;;;;;;;;;;;;;;;24.29;54.11;101610.69;4148823;28;19961;-56
2023/08/23 01:15:51;;;;;;;;;;;;;;;24.29;53.90;101612.50;4148787;28;19925;-57
2023/08/23 01:17:53;;;;;;;;;;;;;;;24.30;54.18;101611.53;4149902;28;20025;-57
2023/08/23 01:19:56;;;;;;;;;;;;;;;24.29;54.21;101615.19;4149928;28;20363;-57
2023/08/23 01:21:57;;;;;;;;;;;;;;;24.28;54.21;101618.84;4149560;28;19956;-56
2023/08/23 01:24:03;;;;;;;;;;;;;;;24.28;53.98;101613.47;4148591;28;19933;-55
2023/08/23 01:26:05;;;;;;;;;;;;;;;24.28;53.88;101613.47;4149852;28;20016;-57
2023/08/23 01:28:06;;;;;;;;;;;;;;;24.27;54.08;101614.47;4149500;28;19929;-54
2023/08/23 01:30:08;;;;;;;;;;;;;;;24.24;54.21;101616.41;4149841;28;19980;-55
2023/08/23 01:32:28;;;;;;;;;;;;;;;24.25;53.94;101617.25;4148379;28;19929;-56
2023/08/23 01:34:34;;;;;;;;;;;;;;;24.24;54.02;101616.41;4149187;28;20346;-56
2023/08/23 01:36:39;;;;;;;;;;;;;;;24.23;54.06;101619.25;4149143;28;20338;-57
2023/08/23 01:38:41;;;;;;;;;;;;;;;24.23;53.84;101622.78;4149493;28;19925;-57
2023/08/23 01:40:43;;;;;;;;;;;;;;;24.22;54.05;101620.22;4149660;28;19925;-57
2023/08/23 01:42:46;;;;;;;;;;;;;;;24.22;54.29;101618.38;4148493;28;20209;-57
2023/08/23 01:44:49;;;;;;;;;;;;;;;24.21;54.10;101616.66;4149345;28;20037;-57
2023/08/23 01:46:50;;;;;;;;;;;;;;;24.21;54.13;101613.13;4149387;28;19932;-57
2023/08/23 01:48:52;;;;;;;;;;;;;;;24.21;54.35;101613.13;4149607;28;19949;-58
2023/08/23 01:50:54;;;;;;;;;;;;;;;24.20;54.12;101616.78;4148919;28;19931;-56
2023/08/23 01:52:55;;;;;;;;;;;;;;;24.19;54.12;101610.56;4148320;28;19925;-56
2023/08/23 01:54:57;;;;;;;;;;;;;;;24.18;54.03;101611.53;4149286;28;20011;-57
2023/08/23 01:56:59;;;;;;;;;;;;;;;24.18;54.37;101611.53;4149177;28;19980;-57
2023/08/23 01:59:01;;;;;;;;;;;;;;;24.18;54.37;101606.16;4149306;28;20489;-57
2023/08/23 02:01:03;;;;;;;;;;;;;;;24.16;54.13;101610.78;4148030;28;19972;-56
2023/08/23 02:03:04;;;;;;;;;;;;;;;24.17;54.39;101608.94;4148383;28;20391;-57
2023/08/23 02:05:06;;;;;;;;;;;;;;;24.15;54.45;101606.38;4148786;28;19929;-57
2023/08/23 02:07:08;;;;;;;;;;;;;;;24.15;54.49;101609.06;4149150;28;20020;-57
2023/08/23 02:09:09;;;;;;;;;;;;;;;24.15;54.30;101606.38;4149037;28;19925;-56
2023/08/23 02:11:11;;;;;;;;;;;;;;;24.15;54.29;101602.84;4149156;28;20032;-57
2023/08/23 02:13:12;;;;;;;;;;;;;;;24.14;54.50;101590.41;4147809;28;19968;-56
2023/08/23 02:15:14;;;;;;;;;;;;;;;24.13;54.50;101600.28;4149108;28;19926;-57
2023/08/23 02:17:15;;;;;;;;;;;;;;;24.13;54.21;101594.91;4148836;28;19926;-56
2023/08/23 02:19:17;;;;;;;;;;;;;;;24.12;54.47;101587.84;4148621;28;19930;-57
2023/08/23 02:21:18;;;;;;;;;;;;;;;24.11;54.46;101586.13;4148909;28;19926;-57
2023/08/23 02:23:20;;;;;;;;;;;;;;;24.11;54.51;101580.75;4147728;28;19926;-57
2023/08/23 02:25:22;;;;;;;;;;;;;;;24.11;54.33;101583.44;4148932;28;19926;-55
2023/08/23 02:27:23;;;;;;;;;;;;;;;24.11;54.47;101585.25;4147710;28;19933;-55
2023/08/23 02:29:25;;;;;;;;;;;;;;;24.09;54.23;101588.06;4148607;28;19936;-56
2023/08/23 02:31:26;;;;;;;;;;;;;;;24.09;54.40;101585.38;4148723;28;20144;-56
2023/08/23 02:33:28;;;;;;;;;;;;;;;24.08;54.14;101589.03;4147567;28;19929;-56
2023/08/23 02:35:29;;;;;;;;;;;;;;;24.07;54.49;101590.00;4148580;28;19931;-52
2023/08/23 02:37:31;;;;;;;;;;;;;;;24.08;54.41;101586.34;4148615;28;20306;-53
2023/08/23 02:39:32;;;;;;;;;;;;;;;24.07;54.47;101584.63;4148380;28;19992;-56
2023/08/23 02:41:34;;;;;;;;;;;;;;;24.06;54.33;101591.84;4148624;28;19948;-57
2023/08/23 02:43:36;;;;;;;;;;;;;;;24.06;54.39;101591.00;4146468;28;19925;-57
2023/08/23 02:45:39;;;;;;;;;;;;;;;24.04;54.47;101595.66;4148594;28;19932;-57
2023/08/23 02:47:40;;;;;;;;;;;;;;;24.04;54.27;101592.97;4148201;28;20348;-58
2023/08/23 02:49:42;;;;;;;;;;;;;;;24.04;54.45;101590.28;4147324;28;20409;-57
2023/08/23 02:51:44;;;;;;;;;;;;;;;24.02;54.29;101589.53;4148100;28;20141;-58
2023/08/23 02:53:45;;;;;;;;;;;;;;;24.02;54.39;101581.47;4147439;28;19926;-57
2023/08/23 02:55:47;;;;;;;;;;;;;;;24.03;54.28;101591.25;4148505;28;19933;-57
2023/08/23 02:57:48;;;;;;;;;;;;;;;24.01;54.18;101594.06;4148398;28;20344;-57
2023/08/23 02:59:50;;;;;;;;;;;;;;;24.01;54.51;101591.38;4148282;28;19925;-57
2023/08/23 03:01:52;;;;;;;;;;;;;;;24.00;54.41;101597.72;4148212;28;19926;-57
2023/08/23 03:03:54;;;;;;;;;;;;;;;24.00;54.52;101591.47;4146769;28;19933;-57
2023/08/23 03:05:56;;;;;;;;;;;;;;;24.00;54.35;101586.97;4148401;28;19980;-57
2023/08/23 03:07:57;;;;;;;;;;;;;;;23.98;54.31;101588.91;4148310;28;19929;-57
2023/08/23 03:09:59;;;;;;;;;;;;;;;23.98;54.51;101586.22;4148247;28;20394;-57
2023/08/23 03:12:00;;;;;;;;;;;;;;;23.97;54.37;101587.19;4148150;28;20306;-57
2023/08/23 03:14:02;;;;;;;;;;;;;;;23.98;54.31;101593.44;4146754;28;20028;-57
2023/08/23 03:16:03;;;;;;;;;;;;;;;23.97;54.24;101597.94;4147877;28;19980;-56
2023/08/23 03:18:05;;;;;;;;;;;;;;;23.97;54.63;101589.88;4148067;28;19930;-56
2023/08/23 03:20:07;;;;;;;;;;;;;;;23.97;54.58;101597.09;4147897;28;19930;-55
2023/08/23 03:22:08;;;;;;;;;;;;;;;23.95;54.29;101590.97;4148171;28;19925;-56
2023/08/23 03:24:10;;;;;;;;;;;;;;;23.96;54.40;101595.38;4146911;28;19980;-53
2023/08/23 03:26:11;;;;;;;;;;;;;;;23.95;54.35;101593.66;4147941;28;19952;-55
2023/08/23 03:28:13;;;;;;;;;;;;;;;23.94;54.63;101592.84;4147986;28;19925;-56
2023/08/23 03:30:14;;;;;;;;;;;;;;;23.93;54.42;101583.06;4148058;28;20399;-53
2023/08/23 03:32:16;;;;;;;;;;;;;;;23.92;54.53;101579.50;4147689;28;19933;-54
2023/08/23 03:34:18;;;;;;;;;;;;;;;23.92;54.39;101581.31;4146903;28;19929;-55
2023/08/23 03:36:20;;;;;;;;;;;;;;;23.91;54.50;101571.53;4147749;28;20412;-57
2023/08/23 03:38:22;;;;;;;;;;;;;;;23.91;54.54;101576.91;4146625;28;19929;-57
2023/08/23 03:40:23;;;;;;;;;;;;;;;23.90;54.27;101575.19;4147635;28;20327;-57
2023/08/23 03:42:25;;;;;;;;;;;;;;;23.90;54.52;101580.56;4147826;28;19925;-57
2023/08/23 03:44:26;;;;;;;;;;;;;;;23.90;54.56;101572.50;4145554;28;20395;-57
2023/08/23 03:46:28;;;;;;;;;;;;;;;23.88;54.30;101572.63;4147396;28;19930;-57
2023/08/23 03:48:29;;;;;;;;;;;;;;;23.88;54.60;101569.94;4147703;28;19933;-57
2023/08/23 03:50:31;;;;;;;;;;;;;;;23.87;54.62;101570.91;4146418;28;20330;-57
2023/08/23 03:52:32;;;;;;;;;;;;;;;23.88;54.49;101567.25;4147574;28;19925;-57
2023/08/23 03:54:35;;;;;;;;;;;;;;;23.86;54.63;101571.88;4146820;28;19926;-58
2023/08/23 03:56:36;;;;;;;;;;;;;;;23.86;54.42;101573.72;4147902;28;19932;-57
2023/08/23 03:58:37;;;;;;;;;;;;;;;23.86;54.67;101573.72;4147666;28;19945;-57
2023/08/23 04:00:39;;;;;;;;;;;;;;;23.86;54.68;101590.69;4147276;28;19958;-58
2023/08/23 04:02:42;;;;;;;;;;;;;;;23.85;54.17;101582.75;4147638;28;19925;-58
2023/08/23 04:04:44;;;;;;;;;;;;;;;23.84;54.42;101586.41;4146659;28;19926;-57
2023/08/23 04:06:45;;;;;;;;;;;;;;;23.83;54.29;101582.91;4147596;28;19935;-58
2023/08/23 04:08:47;;;;;;;;;;;;;;;23.83;54.61;101582.91;4147432;28;19929;-58
2023/08/23 04:10:49;;;;;;;;;;;;;;;23.84;54.28;101581.03;4147377;28;19969;-57
2023/08/23 04:12:51;;;;;;;;;;;;;;;23.82;54.66;101588.41;4147273;28;19987;-57
2023/08/23 04:14:52;;;;;;;;;;;;;;;23.81;54.28;101592.06;4146283;28;20284;-58
2023/08/23 04:16:54;;;;;;;;;;;;;;;23.81;54.26;101592.88;4147193;28;20282;-57
2023/08/23 04:18:56;;;;;;;;;;;;;;;23.81;54.60;101592.06;4147376;28;19979;-57
2023/08/23 04:21:00;;;;;;;;;;;;;;;23.81;54.38;101592.88;4147467;28;20289;-57
2023/08/23 04:23:02;;;;;;;;;;;;;;;23.80;54.52;101584.97;4146970;28;19964;-58
2023/08/23 04:25:03;;;;;;;;;;;;;;;23.79;54.40;101585.94;4146776;28;19933;-58
2023/08/23 04:27:05;;;;;;;;;;;;;;;23.77;54.56;101594.13;4150851;28;19926;-57
2023/08/23 04:29:06;;;;;;;;;;;;;;;23.77;54.35;101583.38;4150401;28;19925;-57
2023/08/23 04:31:08;;;;;;;;;;;;;;;23.77;54.57;101588.75;4150736;28;20391;-57
2023/08/23 04:33:10;;;;;;;;;;;;;;;23.75;54.38;101583.47;4150003;28;20306;-58
2023/08/23 04:35:11;;;;;;;;;;;;;;;23.75;54.43;101586.16;4150362;28;20275;-58
2023/08/23 04:37:13;;;;;;;;;;;;;;;23.75;54.54;101585.31;4150668;28;19925;-58
2023/08/23 04:39:14;;;;;;;;;;;;;;;23.74;54.39;101581.78;4150347;28;19925;-57
2023/08/23 04:41:16;;;;;;;;;;;;;;;23.74;54.69;101581.78;4150528;28;19961;-55
2023/08/23 04:43:17;;;;;;;;;;;;;;;23.72;54.51;101574.81;4149710;28;20025;-57
2023/08/23 04:45:19;;;;;;;;;;;;;;;23.72;54.45;101578.34;4150014;28;19935;-57
2023/08/23 04:47:21;;;;;;;;;;;;;;;23.72;54.61;101583.72;4150362;28;19933;-58
2023/08/23 04:49:24;;;;;;;;;;;;;;;23.71;54.48;101584.69;4150400;28;19925;-57
2023/08/23 04:51:26;;;;;;;;;;;;;;;23.70;54.59;101580.28;4150214;28;20016;-57
2023/08/23 04:53:28;;;;;;;;;;;;;;;23.70;54.76;101582.13;4149649;28;20036;-57
2023/08/23 04:55:29;;;;;;;;;;;;;;;23.69;54.80;101586.63;4149935;28;20012;-57
2023/08/23 04:57:31;;;;;;;;;;;;;;;23.68;54.48;101590.31;4150277;28;20433;-57
2023/08/23 04:59:32;;;;;;;;;;;;;;;23.68;54.58;101587.63;4149942;28;19926;-57
2023/08/23 05:01:34;;;;;;;;;;;;;;;23.66;54.36;101581.53;4150175;28;19937;-58
2023/08/23 05:03:35;;;;;;;;;;;;;;;23.66;54.48;101586.91;4149325;28;20304;-57
2023/08/23 05:05:37;;;;;;;;;;;;;;;23.64;54.69;101591.53;4149888;28;19930;-57
2023/08/23 05:07:39;;;;;;;;;;;;;;;23.63;54.75;101589.81;4150139;28;20360;-57
2023/08/23 05:09:40;;;;;;;;;;;;;;;23.62;54.67;101585.41;4149782;28;19933;-57
2023/08/23 05:11:42;;;;;;;;;;;;;;;23.61;54.61;101589.09;4149869;28;19926;-57
2023/08/23 05:13:43;;;;;;;;;;;;;;;23.60;54.53;101592.75;4148756;28;20409;-57
2023/08/23 05:15:49;;;;;;;;;;;;;;;23.60;54.75;101590.06;4149857;28;19925;-57
2023/08/23 05:17:52;;;;;;;;;;;;;;;23.60;54.83;101593.59;4149898;28;20398;-57
2023/08/23 05:19:53;;;;;;;;;;;;;;;23.60;54.65;101592.75;4148942;28;19926;-57
2023/08/23 05:21:55;;;;;;;;;;;;;;;23.59;54.46;101596.41;4149887;28;20366;-57
2023/08/23 05:23:56;;;;;;;;;;;;;;;23.60;54.85;101592.75;4149120;28;19972;-57
2023/08/23 05:25:58;;;;;;;;;;;;;;;23.58;54.85;101592.84;4149708;28;20288;-58
2023/08/23 05:28:00;;;;;;;;;;;;;;;23.59;54.60;101589.19;4148258;28;19925;-57
2023/08/23 05:30:03;;;;;;;;;;;;;;;23.58;54.68;101589.31;4149571;28;19925;-57
2023/08/23 05:32:05;;;;;;;;;;;;;;;23.58;54.60;101586.63;4149686;28;19929;-57
2023/08/23 05:34:07;;;;;;;;;;;;;;;23.57;54.81;101587.59;4148737;28;19933;-57
2023/08/23 05:36:08;;;;;;;;;;;;;;;23.56;54.47;101596.63;4149383;28;20326;-57
2023/08/23 05:38:10;;;;;;;;;;;;;;;23.54;54.58;101593.22;4149724;28;20237;-57
2023/08/23 05:40:11;;;;;;;;;;;;;;;23.53;54.85;101597.72;4149699;28;20356;-58
2023/08/23 05:42:13;;;;;;;;;;;;;;;23.53;54.66;101600.41;4149043;28;19926;-57
2023/08/23 05:44:14;;;;;;;;;;;;;;;23.52;54.64;101598.69;4148527;28;20387;-57
2023/08/23 05:46:16;;;;;;;;;;;;;;;23.51;54.87;101601.50;4149341;28;19925;-58
2023/08/23 05:48:18;;;;;;;;;;;;;;;23.51;54.71;101598.81;4149558;28;20016;-57
2023/08/23 05:50:20;;;;;;;;;;;;;;;23.38;54.63;101580.09;4149490;28;20304;-57
2023/08/23 05:52:21;;;;;;;;;;;;;;;23.50;54.56;101600.66;4148558;28;19934;-57
2023/08/23 05:54:24;;;;;;;;;;;;;;;23.49;54.80;101595.38;4163565;28;19925;-57
2023/08/23 05:56:41;;;;;;;;;;;;;;;23.47;54.90;101591.97;4148951;28;20004;-57
2023/08/23 05:58:42;;;;;;;;;;;;;;;23.47;54.63;101589.28;4149283;28;20303;-57
2023/08/23 06:00:45;;;;;;;;;;;;;;;23.47;54.77;101592.81;4149013;28;20005;-58
2023/08/23 06:02:46;;;;;;;;;;;;;;;23.47;54.80;101590.13;4149344;28;19947;-57
2023/08/23 06:04:48;;;;;;;;;;;;;;;23.47;54.88;101581.25;4148108;28;19929;-57
2023/08/23 06:06:49;;;;;;;;;;;;;;;23.47;54.57;101578.56;4149075;28;19936;-57
2023/08/23 06:08:51;;;;;;;;;;;;;;;23.47;54.77;101584.75;4149281;28;20280;-57
2023/08/23 06:10:53;;;;;;;;;;;;;;;23.46;54.84;101588.41;4148925;28;20016;-57
2023/08/23 06:12:54;;;;;;;;;;;;;;;23.46;54.74;101591.09;4148808;28;20008;-57
2023/08/23 06:14:56;;;;;;;;;;;;;;;23.46;54.51;101593.78;4148213;28;19925;-56
2023/08/23 06:16:57;;;;;;;;;;;;;;;23.45;54.40;101595.63;4149073;28;19927;-57
2023/08/23 06:18:59;;;;;;;;;;;;;;;23.44;54.54;101595.75;4148940;28;19929;-56
2023/08/23 06:21:00;;;;;;;;;;;;;;;23.44;54.64;101590.38;4164010;28;19925;-56
2023/08/23 06:23:02;;;;;;;;;;;;;;;23.42;54.60;101595.00;4149067;28;20025;-58
2023/08/23 06:25:05;;;;;;;;;;;;;;;23.41;54.67;101591.44;4147323;28;19925;-56
2023/08/23 06:27:06;;;;;;;;;;;;;;;23.40;54.88;101587.06;4149251;28;20244;-56
2023/08/23 06:29:11;;;;;;;;;;;;;;;23.40;54.60;101589.75;4149125;28;19961;-56
2023/08/23 06:31:19;;;;;;;;;;;;;;;23.42;54.41;101595.00;4148705;28;19941;-58
2023/08/23 06:33:21;;;;;;;;;;;;;;;23.40;54.59;101586.19;4148972;28;19952;-57
2023/08/23 06:35:24;;;;;;;;;;;;;;;23.41;54.62;101591.44;4147799;28;20307;-57
2023/08/23 06:37:26;;;;;;;;;;;;;;;23.41;54.37;101594.13;4148619;28;19935;-58
2023/08/23 06:39:27;;;;;;;;;;;;;;;23.40;54.61;101592.44;4148622;28;20016;-57
2023/08/23 06:41:35;;;;;;;;;;;;;;;23.40;54.43;101595.13;4148450;28;20314;-56
2023/08/23 06:43:36;;;;;;;;;;;;;;;23.40;54.48;101595.13;4147648;28;19925;-54
2023/08/23 06:45:38;;;;;;;;;;;;;;;23.40;54.43;101595.13;4148453;28;19925;-57
2023/08/23 06:47:39;;;;;;;;;;;;;;;23.41;54.40;101599.50;4146948;28;19965;-57
2023/08/23 06:49:41;;;;;;;;;;;;;;;23.41;54.56;101599.50;4148230;28;19956;-57
2023/08/23 06:51:42;;;;;;;;;;;;;;;23.41;54.43;101596.81;4148669;28;19996;-57
2023/08/23 06:53:44;;;;;;;;;;;;;;;23.40;54.27;101592.44;4146496;28;20049;-57
2023/08/23 06:55:46;;;;;;;;;;;;;;;23.41;54.59;101586.06;4146938;28;19925;-57
2023/08/23 06:57:47;;;;;;;;;;;;;;;23.40;54.24;101587.06;4148464;28;19925;-57
2023/08/23 06:59:53;;;;;;;;;;;;;;;23.39;54.43;101590.72;4148220;28;19933;-58
2023/08/23 07:01:54;;;;;;;;;;;;;;;23.39;54.18;101601.47;4148426;28;20001;-57
2023/08/23 07:03:56;;;;;;;;;;;;;;;23.39;54.66;101605.97;4147438;28;20142;-58
2023/08/23 07:05:58;;;;;;;;;;;;;;;23.39;54.39;101601.47;4148209;28;19971;-57
2023/08/23 07:08:02;;;;;;;;;;;;;;;23.39;54.38;101619.38;4148396;28;19930;-57
2023/08/23 07:10:04;;;;;;;;;;;;;;;23.38;54.57;101618.53;4147927;28;19927;-57
2023/08/23 07:12:27;;;;;;;;;;;;;;;23.39;54.44;101622.06;4148075;28;19926;-57
2023/08/23 07:14:29;;;;;;;;;;;;;;;23.40;54.43;101610.38;4147027;28;19929;-58
2023/08/23 07:16:30;;;;;;;;;;;;;;;23.40;54.35;101611.25;4148146;28;19964;-57
2023/08/23 07:18:32;;;;;;;;;;;;;;;23.41;54.29;101612.09;4147897;28;19932;-57
2023/08/23 07:20:34;;;;;;;;;;;;;;;23.41;54.34;101612.09;4148015;28;19925;-57
2023/08/23 07:22:35;;;;;;;;;;;;;;;23.39;54.12;101601.47;4146752;28;19925;-57
2023/08/23 07:24:37;;;;;;;;;;;;;;;23.41;54.28;101607.56;4146711;28;20441;-57
2023/08/23 07:26:38;;;;;;;;;;;;;;;23.41;54.23;101610.25;4148173;28;20401;-57
2023/08/23 07:28:40;;;;;;;;;;;;;;;23.41;53.97;101606.72;4147937;28;20028;-57
2023/08/23 07:30:46;;;;;;;;;;;;;;;23.41;54.36;101607.56;4147822;28;19980;-57
2023/08/23 07:32:48;;;;;;;;;;;;;;;23.42;53.93;101608.44;4147987;28;19936;-57
2023/08/23 07:34:50;;;;;;;;;;;;;;;23.44;54.17;101604.66;4146995;28;19929;-57
2023/08/23 07:36:51;;;;;;;;;;;;;;;23.43;54.22;101602.94;4147928;28;19929;-57
2023/08/23 07:38:53;;;;;;;;;;;;;;;23.43;54.14;101602.09;4147434;28;19926;-57
2023/08/23 07:41:03;;;;;;;;;;;;;;;23.43;54.13;101611.00;4147634;28;20283;-57
2023/08/23 07:43:05;;;;;;;;;;;;;;;23.44;54.02;101609.19;4147994;28;19948;-57
2023/08/23 07:45:08;;;;;;;;;;;;;;;23.45;53.97;101616.22;4146665;28;20013;-57
2023/08/23 07:47:09;;;;;;;;;;;;;;;23.47;54.02;101621.50;4147915;28;19925;-57
2023/08/23 07:49:11;;;;;;;;;;;;;;;23.47;54.10;101619.66;4146522;28;20012;-57
2023/08/23 07:51:13;;;;;;;;;;;;;;;23.48;54.16;101612.47;4146616;28;19926;-58
2023/08/23 07:53:15;;;;;;;;;;;;;;;23.49;54.06;101617.72;4147449;28;19933;-58
2023/08/23 07:55:16;;;;;;;;;;;;;;;23.49;54.06;101611.47;4146717;28;20374;-57
2023/08/23 07:57:18;;;;;;;;;;;;;;;23.50;53.77;101618.56;4147653;28;20021;-58
2023/08/23 07:59:19;;;;;;;;;;;;;;;23.51;53.96;101615.75;4147346;28;19933;-57
2023/08/23 08:01:21;;;;;;;;;;;;;;;23.52;53.61;101622.00;4147624;28;19933;-58
2023/08/23 08:03:23;;;;;;;;;;;;;;;23.52;53.55;101620.16;4147717;28;19937;-58
2023/08/23 08:05:24;;;;;;;;;;;;;;;23.52;53.89;101617.47;4146540;28;20367;-58
2023/08/23 08:07:28;;;;;;;;;;;;;;;23.46;53.54;101607.22;4147367;28;20013;-57
2023/08/23 08:09:49;;;;;;;;;;;;;;;23.52;53.77;101614.78;4147755;28;19941;-57
2023/08/23 08:11:51;;;;;;;;;;;;;;;23.53;53.60;101621.03;4147534;28;20032;-58
2023/08/23 08:13:52;;;;;;;;;;;;;;;23.53;53.85;101618.34;4147379;28;19925;-58
2023/08/23 08:15:55;;;;;;;;;;;;;;;23.54;53.67;101612.84;4147162;28;19940;-57
2023/08/23 08:17:57;;;;;;;;;;;;;;;23.54;53.93;101612.00;4147373;28;20036;-58
2023/08/23 08:20:00;;;;;;;;;;;;;;;23.56;53.87;101610.91;4147421;28;19926;-58
2023/08/23 08:22:02;;;;;;;;;;;;;;;23.56;53.61;101608.22;4147359;28;20025;-57
2023/08/23 08:24:03;;;;;;;;;;;;;;;23.57;53.67;101615.31;4146647;28;19969;-56
2023/08/23 08:26:06;;;;;;;;;;;;;;;23.58;53.78;101616.16;4147134;28;19925;-57
2023/08/23 08:28:10;;;;;;;;;;;;;;;23.59;53.80;101607.97;4147207;28;19930;-57
2023/08/23 08:30:12;;;;;;;;;;;;;;;23.60;53.58;101612.38;4147125;28;20399;-58
2023/08/23 08:32:13;;;;;;;;;;;;;;;23.60;53.81;101611.53;4147665;28;19925;-58
2023/08/23 08:34:15;;;;;;;;;;;;;;;23.61;53.74;101621.31;4146410;28;20234;-58
2023/08/23 08:36:16;;;;;;;;;;;;;;;23.63;53.62;101621.19;4146895;28;20306;-58
2023/08/23 08:38:18;;;;;;;;;;;;;;;23.64;53.76;101614.84;4147155;28;19925;-57
2023/08/23 08:40:22;;;;;;;;;;;;;;;23.65;53.53;101621.94;4147236;28;19937;-58
2023/08/23 08:42:23;;;;;;;;;;;;;;;23.65;53.67;101625.47;4147316;28;20020;-57
2023/08/23 08:44:25;;;;;;;;;;;;;;;23.65;53.74;101621.94;4146359;28;20119;-58
2023/08/23 08:46:27;;;;;;;;;;;;;;;23.66;53.74;101629.88;4146079;28;20363;-58
2023/08/23 08:48:28;;;;;;;;;;;;;;;23.65;53.31;101628.16;4146043;28;19925;-57
2023/08/23 08:50:31;;;;;;;;;;;;;;;23.67;53.44;101628.03;4147046;28;19930;-57
2023/08/23 08:52:33;;;;;;;;;;;;;;;23.67;53.57;101633.41;4147061;28;19965;-56
2023/08/23 08:54:35;;;;;;;;;;;;;;;23.67;53.71;101628.03;4146093;28;19932;-58
2023/08/23 08:56:36;;;;;;;;;;;;;;;23.69;53.50;101624.25;4146075;28;19972;-57
2023/08/23 08:58:38;;;;;;;;;;;;;;;23.70;53.66;101623.28;4147251;28;19976;-58
2023/08/23 09:00:41;;;;;;;;;;;;;;;23.70;53.72;101627.78;4147229;28;20394;-57
2023/08/23 09:02:44;;;;;;;;;;;;;;;23.71;53.57;101629.50;4147353;28;20478;-57
2023/08/23 09:04:46;;;;;;;;;;;;;;;23.72;53.60;101633.88;4145965;28;19983;-58
2023/08/23 09:06:48;;;;;;;;;;;;;;;23.76;53.63;101633.53;4147042;28;20323;-58
2023/08/23 09:08:50;;;;;;;;;;;;;;;23.77;53.61;101635.25;4147221;28;20014;-58
2023/08/23 09:10:51;;;;;;;;;;;;;;;23.80;53.26;101628.78;4147031;28;19926;-58
2023/08/23 09:12:53;;;;;;;;;;;;;;;23.82;53.52;101632.22;4149852;28;20363;-58
2023/08/23 09:14:54;;;;;;;;;;;;;;;23.83;53.24;101639.31;4149025;28;19932;-58
2023/08/23 09:16:56;;;;;;;;;;;;;;;23.84;53.44;101635.66;4150204;28;19925;-58
2023/08/23 09:18:57;;;;;;;;;;;;;;;23.86;53.21;101632.84;4149967;28;19926;-58
2023/08/23 09:21:00;;;;;;;;;;;;;;;23.87;53.55;101629.19;4149617;28;19926;-58
2023/08/23 09:23:01;;;;;;;;;;;;;;;23.86;53.26;101630.16;4149655;28;19925;-58
2023/08/23 09:25:04;;;;;;;;;;;;;;;23.87;53.29;101624.66;4149144;28;19957;-58
2023/08/23 09:27:05;;;;;;;;;;;;;;;23.88;53.41;101618.31;4149884;28;20387;-58
2023/08/23 09:29:07;;;;;;;;;;;;;;;23.89;53.25;101622.72;4149603;28;19961;-57
2023/08/23 09:31:09;;;;;;;;;;;;;;;23.90;53.23;101618.19;4149817;28;19925;-58
2023/08/23 09:33:11;;;;;;;;;;;;;;;23.91;53.38;101623.44;4150153;28;20332;-58
2023/08/23 09:35:14;;;;;;;;;;;;;;;23.92;53.19;101610.84;4148230;28;19926;-56
2023/08/23 09:37:17;;;;;;;;;;;;;;;23.93;53.32;101608.06;4149861;28;20114;-58
2023/08/23 09:39:18;;;;;;;;;;;;;;;23.97;53.41;101607.84;4149575;28;19971;-57
2023/08/23 09:41:21;;;;;;;;;;;;;;;23.97;53.20;101611.38;4149408;28;19930;-57
2023/08/23 09:43:23;;;;;;;;;;;;;;;23.99;53.14;101616.66;4149459;28;19925;-58
2023/08/23 09:45:26;;;;;;;;;;;;;;;24.00;53.30;101612.97;4148219;28;19925;-57
2023/08/23 09:47:30;;;;;;;;;;;;;;;24.00;52.99;101610.28;4149447;28;19968;-58
2023/08/23 09:49:33;;;;;;;;;;;;;;;24.00;53.15;101621.91;4149145;28;19929;-58
2023/08/23 09:51:36;;;;;;;;;;;;;;;24.00;53.06;101621.03;4149351;28;20362;-57
2023/08/23 09:53:40;;;;;;;;;;;;;;;24.02;53.22;101619.97;4149579;28;20358;-58
2023/08/23 09:55:42;;;;;;;;;;;;;;;24.03;53.39;101624.31;4148512;28;20017;-58
2023/08/23 09:57:44;;;;;;;;;;;;;;;24.05;53.23;101625.06;4149258;28;19925;-57
2023/08/23 09:59:46;;;;;;;;;;;;;;;24.06;53.26;101621.41;4148207;28;20012;-58
2023/08/23 10:01:48;;;;;;;;;;;;;;;24.07;53.16;101612.38;4148081;28;20303;-58
2023/08/23 10:03:50;;;;;;;;;;;;;;;24.09;53.00;101606.88;4149025;28;20303;-57
2023/08/23 10:05:51;;;;;;;;;;;;;;;24.09;53.11;101610.41;4148266;28;20391;-58
2023/08/23 10:07:56;;;;;;;;;;;;;;;24.10;53.04;101597.84;4149277;28;19926;-58
2023/08/23 10:09:58;;;;;;;;;;;;;;;24.10;53.34;101597.84;4149298;28;20416;-58
2023/08/23 10:12:01;;;;;;;;;;;;;;;24.11;53.15;101594.19;4149216;28;19926;-57
2023/08/23 10:14:05;;;;;;;;;;;;;;;24.11;53.33;101590.63;4149188;28;19926;-57
2023/08/23 10:16:07;;;;;;;;;;;;;;;24.11;53.10;101590.63;4147989;28;19964;-57
2023/08/23 10:18:11;;;;;;;;;;;;;;;24.12;53.35;101587.84;4148725;28;19929;-57
2023/08/23 10:20:14;;;;;;;;;;;;;;;24.13;53.28;101583.31;4149040;28;20028;-55
2023/08/23 10:22:18;;;;;;;;;;;;;;;24.13;53.10;101584.16;4148717;28;20398;-56
2023/08/23 10:24:38;;;;;;;;;;;;;;;24.14;53.01;101577.78;4147618;28;19929;-58
2023/08/23 10:26:44;;;;;;;;;;;;;;;24.16;53.46;101570.47;4148926;28;20383;-58
2023/08/23 10:28:53;;;;;;;;;;;;;;;24.16;53.63;101581.22;4149169;28;20184;-58